Wetterdaten: Woche 21.09.15 - 27.09.15 (KW39)
Datum Zeit Temperatur Luftfeuchte Luftdruck Niederschlag Windrichtung Sonnenschein Solar Wind
21.09.2015 00:00 8,7 C 93 % 1020,8 hPa 0,0 l/m N 0,00 h 0 W/m 0,0 km/h (0 Bft)
21.09.2015 01:00 9,1 C 94 % 1020,3 hPa 0,0 l/m NO 0,00 h 0 W/m 0,0 km/h (0 Bft)
21.09.2015 02:00 8,9 C 94 % 1019,8 hPa 0,0 l/m NO 0,00 h 0 W/m 1,1 km/h (0 Bft)
21.09.2015 03:00 7,9 C 93 % 1019,3 hPa 0,0 l/m N 0,00 h 0 W/m 0,3 km/h (0 Bft)
21.09.2015 04:00 7,2 C 93 % 1018,8 hPa 0,0 l/m N 0,00 h 0 W/m 0,0 km/h (0 Bft)
21.09.2015 05:00 6,8 C 94 % 1018,5 hPa 0,0 l/m N 0,00 h 0 W/m 0,4 km/h (0 Bft)
21.09.2015 06:00 6,4 C 94 % 1018,2 hPa 0,0 l/m N 0,00 h 0 W/m 0,1 km/h (0 Bft)
21.09.2015 07:00 6,3 C 95 % 1017,9 hPa 0,0 l/m NO 0,00 h 14 W/m 0,9 km/h (0 Bft)
21.09.2015 08:00 6,8 C 96 % 1017,6 hPa 0,0 l/m NO 0,42 h 129 W/m 3,2 km/h (1 Bft)
21.09.2015 09:00 8,3 C 98 % 1017,2 hPa 0,0 l/m NO 1,00 h 306 W/m 6,9 km/h (2 Bft)
21.09.2015 10:00 10,5 C 95 % 1016,8 hPa 0,0 l/m O-NO 0,92 h 439 W/m 11,2 km/h (2 Bft)
21.09.2015 11:00 13,3 C 82 % 1016,3 hPa 0,0 l/m O-SO 1,00 h 589 W/m 12,8 km/h (3 Bft)
21.09.2015 12:00 14,9 C 73 % 1015,8 hPa 0,0 l/m O-NO 0,75 h 554 W/m 10,1 km/h (2 Bft)
21.09.2015 13:00 15,6 C 66 % 1015,0 hPa 0,0 l/m O-NO 0,50 h 453 W/m 8,7 km/h (2 Bft)
21.09.2015 14:00 17,3 C 62 % 1013,9 hPa 0,0 l/m O-SO 0,92 h 639 W/m 9,3 km/h (2 Bft)
21.09.2015 15:00 18,9 C 57 % 1013,0 hPa 0,0 l/m SO 1,00 h 580 W/m 7,0 km/h (2 Bft)
21.09.2015 16:00 20,0 C 52 % 1012,3 hPa 0,0 l/m NO 1,00 h 447 W/m 4,8 km/h (1 Bft)
21.09.2015 17:00 20,1 C 51 % 1011,9 hPa 0,0 l/m O-SO 1,00 h 289 W/m 4,1 km/h (1 Bft)
21.09.2015 18:00 19,5 C 58 % 1011,5 hPa 0,0 l/m N 0,50 h 82 W/m 0,0 km/h (0 Bft)
21.09.2015 19:00 16,0 C 67 % 1011,1 hPa 0,0 l/m N 0,00 h 6 W/m 0,1 km/h (0 Bft)
21.09.2015 20:00 12,9 C 77 % 1011,3 hPa 0,0 l/m N 0,00 h 0 W/m 0,0 km/h (0 Bft)
21.09.2015 21:00 11,0 C 83 % 1011,3 hPa 0,0 l/m O-SO 0,00 h 0 W/m 1,1 km/h (0 Bft)
21.09.2015 22:00 9,9 C 85 % 1011,2 hPa 0,0 l/m N 0,00 h 0 W/m 0,0 km/h (0 Bft)
21.09.2015 23:00 9,1 C 87 % 1010,8 hPa 0,0 l/m N 0,00 h 0 W/m 0,0 km/h (0 Bft)
22.09.2015 00:00 8,4 C 89 % 1010,4 hPa 0,0 l/m N 0,00 h 0 W/m 0,0 km/h (0 Bft)
22.09.2015 01:00 7,9 C 91 % 1009,7 hPa 0,0 l/m N 0,00 h 0 W/m 0,0 km/h (0 Bft)
22.09.2015 02:00 7,7 C 92 % 1009,5 hPa 0,0 l/m N 0,00 h 0 W/m 0,1 km/h (0 Bft)
22.09.2015 03:00 7,8 C 94 % 1009,2 hPa 0,0 l/m N 0,00 h 0 W/m 0,0 km/h (0 Bft)
22.09.2015 04:00 7,9 C 95 % 1009,3 hPa 0,0 l/m N 0,00 h 0 W/m 0,0 km/h (0 Bft)
22.09.2015 05:00 8,3 C 95 % 1008,9 hPa 0,0 l/m O-SO 0,00 h 0 W/m 3,1 km/h (1 Bft)
22.09.2015 06:00 8,4 C 96 % 1008,6 hPa 0,0 l/m SW 0,00 h 5 W/m 9,1 km/h (2 Bft)
22.09.2015 07:00 8,8 C 96 % 1008,3 hPa 0,0 l/m S-SW 0,08 h 21 W/m 6,6 km/h (2 Bft)
22.09.2015 08:00 9,5 C 97 % 1007,8 hPa 0,0 l/m S-SW 0,00 h 45 W/m 7,5 km/h (2 Bft)
22.09.2015 09:00 10,4 C 98 % 1007,4 hPa 0,0 l/m S-SW 0,00 h 79 W/m 6,8 km/h (2 Bft)
22.09.2015 10:00 11,9 C 98 % 1006,9 hPa 0,0 l/m S-SW 0,08 h 202 W/m 12,8 km/h (3 Bft)
22.09.2015 11:00 13,5 C 91 % 1006,4 hPa 0,0 l/m S-SW 0,00 h 174 W/m 13,2 km/h (3 Bft)
22.09.2015 12:00 14,5 C 83 % 1005,7 hPa 0,0 l/m S-SW 0,00 h 165 W/m 12,0 km/h (2 Bft)
22.09.2015 13:00 15,0 C 78 % 1005,2 hPa 0,0 l/m SW 0,00 h 126 W/m 11,0 km/h (2 Bft)
22.09.2015 14:00 14,8 C 79 % 1005,0 hPa 0,0 l/m SW 0,00 h 68 W/m 5,5 km/h (1 Bft)
22.09.2015 15:00 14,6 C 81 % 1004,2 hPa 0,0 l/m SW 0,00 h 87 W/m 7,4 km/h (2 Bft)
22.09.2015 16:00 14,8 C 82 % 1003,7 hPa 0,0 l/m S-SW 0,00 h 89 W/m 12,5 km/h (3 Bft)
22.09.2015 17:00 14,2 C 85 % 1003,4 hPa 0,0 l/m S-SW 0,00 h 38 W/m 11,6 km/h (2 Bft)
22.09.2015 18:00 13,5 C 88 % 1003,6 hPa 0,0 l/m SW 0,00 h 14 W/m 12,5 km/h (3 Bft)
22.09.2015 19:00 12,8 C 90 % 1003,6 hPa 0,0 l/m SW 0,00 h 9 W/m 9,8 km/h (2 Bft)
22.09.2015 20:00 12,2 C 92 % 1003,7 hPa 0,0 l/m SW 0,00 h 0 W/m 6,2 km/h (2 Bft)
22.09.2015 21:00 12,0 C 93 % 1003,4 hPa 0,0 l/m SW 0,00 h 0 W/m 3,3 km/h (1 Bft)
22.09.2015 22:00 11,6 C 93 % 1003,2 hPa 0,0 l/m N 0,00 h 0 W/m 0,5 km/h (0 Bft)
22.09.2015 23:00 11,0 C 93 % 1003,6 hPa 0,2 l/m W-NW 0,00 h 0 W/m 12,7 km/h (3 Bft)
23.09.2015 00:00 10,2 C 91 % 1004,2 hPa 0,0 l/m W-NW 0,00 h 0 W/m 8,4 km/h (2 Bft)
23.09.2015 01:00 10,0 C 93 % 1005,6 hPa 0,0 l/m W-SW 0,00 h 0 W/m 8,2 km/h (2 Bft)
23.09.2015 02:00 9,7 C 94 % 1006,0 hPa 0,8 l/m SW 0,00 h 0 W/m 10,3 km/h (2 Bft)
23.09.2015 03:00 9,2 C 95 % 1006,2 hPa 0,4 l/m SW 0,00 h 0 W/m 12,1 km/h (2 Bft)
23.09.2015 04:00 8,8 C 96 % 1006,2 hPa 0,0 l/m W-SW 0,00 h 0 W/m 14,5 km/h (3 Bft)
23.09.2015 05:00 8,6 C 96 % 1006,2 hPa 0,0 l/m SW 0,00 h 0 W/m 12,0 km/h (2 Bft)
23.09.2015 06:00 8,4 C 96 % 1006,9 hPa 0,0 l/m SW 0,00 h 0 W/m 11,7 km/h (2 Bft)
23.09.2015 07:00 8,1 C 96 % 1007,0 hPa 0,0 l/m SW 0,00 h 7 W/m 17,6 km/h (3 Bft)
23.09.2015 08:00 8,3 C 96 % 1008,0 hPa 0,0 l/m SW 0,00 h 29 W/m 12,2 km/h (2 Bft)
23.09.2015 09:00 8,6 C 96 % 1008,4 hPa 0,0 l/m SW 0,00 h 62 W/m 8,6 km/h (2 Bft)
23.09.2015 10:00 9,2 C 95 % 1009,1 hPa 0,0 l/m SW 0,00 h 88 W/m 13,0 km/h (3 Bft)
23.09.2015 11:00 9,6 C 90 % 1009,9 hPa 0,0 l/m W-SW 0,00 h 133 W/m 17,8 km/h (3 Bft)
23.09.2015 12:00 10,4 C 87 % 1010,5 hPa 0,0 l/m W-SW 0,00 h 171 W/m 18,5 km/h (3 Bft)
23.09.2015 13:00 10,8 C 84 % 1010,6 hPa 0,0 l/m W-SW 0,00 h 172 W/m 18,4 km/h (3 Bft)
23.09.2015 14:00 10,8 C 87 % 1011,3 hPa 0,2 l/m W 0,00 h 146 W/m 14,6 km/h (3 Bft)
23.09.2015 15:00 11,2 C 87 % 1011,4 hPa 0,0 l/m W-SW 0,17 h 265 W/m 16,0 km/h (3 Bft)
23.09.2015 16:00 11,7 C 84 % 1011,8 hPa 0,2 l/m W-SW 0,17 h 142 W/m 11,6 km/h (2 Bft)
23.09.2015 17:00 10,7 C 88 % 1012,6 hPa 0,0 l/m W-NW 0,17 h 104 W/m 4,8 km/h (1 Bft)
23.09.2015 18:00 10,8 C 89 % 1013,5 hPa 0,0 l/m N 0,00 h 23 W/m 1,2 km/h (1 Bft)
23.09.2015 19:00 10,4 C 90 % 1014,2 hPa 0,0 l/m N 0,00 h 8 W/m 0,0 km/h (0 Bft)
23.09.2015 20:00 9,8 C 92 % 1015,1 hPa 0,0 l/m W-NW 0,00 h 0 W/m 1,6 km/h (1 Bft)
23.09.2015 21:00 9,4 C 94 % 1015,8 hPa 0,0 l/m W-NW 0,00 h 0 W/m 3,2 km/h (1 Bft)
23.09.2015 22:00 9,4 C 95 % 1016,6 hPa 0,0 l/m W 0,00 h 0 W/m 4,1 km/h (1 Bft)
23.09.2015 23:00 9,4 C 95 % 1017,1 hPa 0,0 l/m W 0,00 h 0 W/m 4,0 km/h (1 Bft)
24.09.2015 00:00 9,3 C 96 % 1017,2 hPa 0,0 l/m W 0,00 h 0 W/m 3,7 km/h (1 Bft)
24.09.2015 01:00 9,3 C 96 % 1017,4 hPa 0,2 l/m N 0,00 h 0 W/m 0,0 km/h (0 Bft)
24.09.2015 02:00 9,2 C 96 % 1017,9 hPa 0,8 l/m W 0,00 h 0 W/m 2,4 km/h (1 Bft)
24.09.2015 03:00 9,1 C 98 % 1017,9 hPa 0,2 l/m W 0,00 h 0 W/m 1,6 km/h (1 Bft)
24.09.2015 04:00 9,0 C 97 % 1018,2 hPa 0,0 l/m W 0,00 h 0 W/m 2,9 km/h (1 Bft)
24.09.2015 05:00 8,9 C 97 % 1018,2 hPa 0,0 l/m W 0,00 h 0 W/m 0,4 km/h (0 Bft)
24.09.2015 06:00 8,8 C 97 % 1018,4 hPa 0,0 l/m W 0,00 h 0 W/m 2,0 km/h (1 Bft)
24.09.2015 07:00 8,8 C 97 % 1018,9 hPa 0,0 l/m W-SW 0,00 h 13 W/m 7,7 km/h (2 Bft)
24.09.2015 08:00 8,9 C 98 % 1019,4 hPa 0,0 l/m N 0,00 h 40 W/m 2,0 km/h (1 Bft)
24.09.2015 09:00 9,5 C 98 % 1019,7 hPa 0,0 l/m SW 0,00 h 67 W/m 3,5 km/h (1 Bft)
24.09.2015 10:00 10,0 C 98 % 1020,1 hPa 0,0 l/m SW 0,00 h 113 W/m 8,4 km/h (2 Bft)
24.09.2015 11:00 10,8 C 98 % 1020,5 hPa 0,0 l/m SW 0,00 h 168 W/m 7,1 km/h (2 Bft)
24.09.2015 12:00 11,7 C 94 % 1020,0 hPa 0,0 l/m SW 0,33 h 340 W/m 5,6 km/h (1 Bft)
24.09.2015 13:00 13,3 C 83 % 1019,5 hPa 0,0 l/m S-SO 0,50 h 527 W/m 5,5 km/h (1 Bft)
24.09.2015 14:00 14,8 C 75 % 1019,2 hPa 0,0 l/m S-SO 0,25 h 277 W/m 4,4 km/h (1 Bft)
24.09.2015 15:00 15,0 C 70 % 1019,1 hPa 0,0 l/m S-SO 0,33 h 275 W/m 2,5 km/h (1 Bft)
24.09.2015 16:00 16,3 C 65 % 1018,9 hPa 0,0 l/m S-SW 0,33 h 197 W/m 6,5 km/h (2 Bft)
24.09.2015 17:00 15,1 C 70 % 1018,9 hPa 0,0 l/m S-SW 0,17 h 110 W/m 4,8 km/h (1 Bft)
24.09.2015 18:00 14,6 C 72 % 1019,0 hPa 0,0 l/m N 0,42 h 68 W/m 1,5 km/h (1 Bft)
24.09.2015 19:00 13,0 C 77 % 1019,2 hPa 0,0 l/m N 0,00 h 6 W/m 0,0 km/h (0 Bft)
24.09.2015 20:00 10,6 C 83 % 1019,6 hPa 0,0 l/m N 0,00 h 0 W/m 0,0 km/h (0 Bft)
24.09.2015 21:00 9,1 C 86 % 1020,0 hPa 0,0 l/m N 0,00 h 0 W/m 0,0 km/h (0 Bft)
24.09.2015 22:00 8,1 C 88 % 1020,3 hPa 0,0 l/m N 0,00 h 0 W/m 0,0 km/h (0 Bft)
24.09.2015 23:00 7,3 C 90 % 1020,3 hPa 0,0 l/m N 0,00 h 0 W/m 0,0 km/h (0 Bft)
25.09.2015 00:00 6,8 C 91 % 1020,4 hPa 0,0 l/m S-SW 0,00 h 0 W/m 0,4 km/h (0 Bft)
25.09.2015 01:00 6,2 C 92 % 1020,5 hPa 0,0 l/m N 0,00 h 0 W/m 0,0 km/h (0 Bft)
25.09.2015 02:00 5,5 C 93 % 1020,5 hPa 0,0 l/m S-SW 0,00 h 0 W/m 0,9 km/h (0 Bft)
25.09.2015 03:00 5,1 C 94 % 1020,5 hPa 0,0 l/m N 0,00 h 0 W/m 0,0 km/h (0 Bft)
25.09.2015 04:00 4,9 C 95 % 1020,4 hPa 0,0 l/m N 0,00 h 0 W/m 0,0 km/h (0 Bft)
25.09.2015 05:00 4,5 C 95 % 1020,4 hPa 0,0 l/m N 0,00 h 0 W/m 0,0 km/h (0 Bft)
25.09.2015 06:00 4,2 C 95 % 1020,5 hPa 0,2 l/m N 0,00 h 0 W/m 0,0 km/h (0 Bft)
25.09.2015 07:00 4,0 C 95 % 1020,8 hPa 0,0 l/m N 0,00 h 24 W/m 0,0 km/h (0 Bft)
25.09.2015 08:00 4,5 C 96 % 1021,1 hPa 0,0 l/m N 0,00 h 87 W/m 0,0 km/h (0 Bft)
25.09.2015 09:00 5,8 C 97 % 1021,3 hPa 0,0 l/m N 0,50 h 205 W/m 0,4 km/h (0 Bft)
25.09.2015 10:00 8,4 C 98 % 1021,4 hPa 0,0 l/m S-SW 0,92 h 326 W/m 1,1 km/h (0 Bft)
25.09.2015 11:00 10,6 C 98 % 1021,2 hPa 0,0 l/m S-SW 0,92 h 430 W/m 3,1 km/h (1 Bft)
25.09.2015 12:00 12,6 C 88 % 1020,7 hPa 0,0 l/m W 1,00 h 509 W/m 3,2 km/h (1 Bft)
25.09.2015 13:00 15,3 C 69 % 1020,3 hPa 0,0 l/m SW 0,92 h 540 W/m 5,6 km/h (1 Bft)
25.09.2015 14:00 16,3 C 62 % 1020,1 hPa 0,0 l/m N-NW 0,17 h 221 W/m 7,5 km/h (2 Bft)
25.09.2015 15:00 17,1 C 59 % 1020,0 hPa 0,0 l/m N-NO 0,67 h 351 W/m 5,8 km/h (1 Bft)
25.09.2015 16:00 17,4 C 58 % 1019,9 hPa 0,0 l/m N-NO 0,33 h 208 W/m 4,5 km/h (1 Bft)
25.09.2015 17:00 17,0 C 58 % 1019,9 hPa 0,0 l/m N-NO 0,17 h 116 W/m 4,9 km/h (1 Bft)
25.09.2015 18:00 16,2 C 67 % 1020,0 hPa 0,0 l/m N-NO 0,00 h 47 W/m 1,5 km/h (1 Bft)
25.09.2015 19:00 15,0 C 71 % 1020,3 hPa 0,0 l/m N 0,00 h 6 W/m 1,5 km/h (1 Bft)
25.09.2015 20:00 13,9 C 77 % 1020,8 hPa 0,0 l/m N 0,00 h 0 W/m 0,0 km/h (0 Bft)
25.09.2015 21:00 13,0 C 81 % 1021,2 hPa 0,0 l/m N 0,00 h 0 W/m 1,2 km/h (1 Bft)
25.09.2015 22:00 12,7 C 83 % 1021,3 hPa 0,0 l/m N-NO 0,00 h 0 W/m 5,3 km/h (1 Bft)
25.09.2015 23:00 12,7 C 84 % 1021,3 hPa 0,0 l/m N-NO 0,00 h 0 W/m 7,0 km/h (2 Bft)
26.09.2015 00:00 12,5 C 86 % 1021,1 hPa 0,0 l/m N-NO 0,00 h 0 W/m 2,8 km/h (1 Bft)
26.09.2015 01:00 12,2 C 87 % 1021,0 hPa 0,0 l/m N-NO 0,00 h 0 W/m 3,1 km/h (1 Bft)
26.09.2015 02:00 12,0 C 88 % 1020,9 hPa 0,0 l/m N-NO 0,00 h 0 W/m 3,3 km/h (1 Bft)
26.09.2015 03:00 11,7 C 89 % 1020,7 hPa 0,0 l/m N-NO 0,00 h 0 W/m 1,2 km/h (1 Bft)
26.09.2015 04:00 11,2 C 91 % 1020,4 hPa 0,0 l/m N-NO 0,00 h 0 W/m 5,3 km/h (1 Bft)
26.09.2015 05:00 10,9 C 92 % 1020,1 hPa 0,0 l/m N-NO 0,00 h 0 W/m 5,3 km/h (1 Bft)
26.09.2015 06:00 10,6 C 93 % 1020,0 hPa 0,0 l/m N-NO 0,00 h 0 W/m 4,3 km/h (1 Bft)
26.09.2015 07:00 9,9 C 93 % 1020,2 hPa 0,0 l/m N-NO 0,00 h 18 W/m 5,7 km/h (1 Bft)
26.09.2015 08:00 10,0 C 95 % 1020,5 hPa 0,0 l/m N-NO 0,67 h 133 W/m 6,0 km/h (2 Bft)
26.09.2015 09:00 11,4 C 92 % 1020,6 hPa 0,0 l/m O-NO 0,67 h 252 W/m 12,5 km/h (3 Bft)
26.09.2015 10:00 13,0 C 82 % 1020,6 hPa 0,0 l/m O-NO 0,25 h 160 W/m 16,1 km/h (3 Bft)
26.09.2015 11:00 14,0 C 77 % 1020,4 hPa 0,0 l/m NO 0,58 h 462 W/m 15,4 km/h (3 Bft)
26.09.2015 12:00 15,1 C 71 % 1020,1 hPa 0,0 l/m O-NO 0,58 h 495 W/m 16,9 km/h (3 Bft)
26.09.2015 13:00 15,8 C 68 % 1019,9 hPa 0,0 l/m O-NO 0,08 h 233 W/m 17,8 km/h (3 Bft)
26.09.2015 14:00 16,0 C 66 % 1019,7 hPa 0,0 l/m O-NO 0,17 h 276 W/m 16,8 km/h (3 Bft)
26.09.2015 15:00 16,4 C 63 % 1019,7 hPa 0,0 l/m O-NO 0,33 h 272 W/m 18,1 km/h (3 Bft)
26.09.2015 16:00 16,9 C 61 % 1019,8 hPa 0,0 l/m O-NO 0,58 h 304 W/m 18,4 km/h (3 Bft)
26.09.2015 17:00 16,2 C 64 % 1020,1 hPa 0,0 l/m O-NO 0,00 h 74 W/m 18,8 km/h (3 Bft)
26.09.2015 18:00 15,2 C 69 % 1020,5 hPa 0,0 l/m NO 0,00 h 23 W/m 15,0 km/h (3 Bft)
26.09.2015 19:00 14,5 C 73 % 1020,9 hPa 0,0 l/m O-NO 0,00 h 5 W/m 13,6 km/h (3 Bft)
26.09.2015 20:00 13,8 C 77 % 1021,3 hPa 0,0 l/m NO 0,00 h 0 W/m 11,4 km/h (2 Bft)
26.09.2015 21:00 13,2 C 80 % 1021,5 hPa 0,0 l/m O-NO 0,00 h 0 W/m 13,3 km/h (3 Bft)
26.09.2015 22:00 12,4 C 83 % 1021,7 hPa 0,0 l/m O-NO 0,00 h 0 W/m 12,2 km/h (2 Bft)
26.09.2015 23:00 11,8 C 86 % 1021,7 hPa 0,0 l/m NO 0,00 h 0 W/m 12,4 km/h (3 Bft)
27.09.2015 00:00 11,1 C 87 % 1021,7 hPa 0,0 l/m NO 0,00 h 0 W/m 9,7 km/h (2 Bft)
27.09.2015 01:00 10,5 C 90 % 1021,6 hPa 0,0 l/m O-NO 0,00 h 0 W/m 7,1 km/h (2 Bft)
27.09.2015 02:00 10,0 C 92 % 1021,7 hPa 0,0 l/m NO 0,00 h 0 W/m 13,7 km/h (3 Bft)
27.09.2015 03:00 9,6 C 92 % 1021,9 hPa 0,0 l/m NO 0,00 h 0 W/m 12,8 km/h (3 Bft)
27.09.2015 04:00 9,1 C 92 % 1022,2 hPa 0,0 l/m NO 0,00 h 0 W/m 11,2 km/h (2 Bft)
27.09.2015 05:00 8,7 C 92 % 1022,5 hPa 0,0 l/m NO 0,00 h 0 W/m 11,4 km/h (2 Bft)
27.09.2015 06:00 8,4 C 92 % 1022,6 hPa 0,0 l/m NO 0,00 h 0 W/m 13,0 km/h (3 Bft)
27.09.2015 07:00 8,2 C 92 % 1023,2 hPa 0,0 l/m NO 0,00 h 15 W/m 9,9 km/h (2 Bft)
27.09.2015 08:00 8,6 C 92 % 1023,6 hPa 0,0 l/m NO 0,33 h 105 W/m 15,3 km/h (3 Bft)
27.09.2015 09:00 10,1 C 87 % 1024,2 hPa 0,0 l/m O-NO 1,00 h 278 W/m 22,0 km/h (4 Bft)
27.09.2015 10:00 11,9 C 78 % 1024,7 hPa 0,0 l/m O 1,00 h 427 W/m 26,5 km/h (4 Bft)
27.09.2015 11:00 13,4 C 70 % 1024,9 hPa 0,0 l/m O 1,00 h 562 W/m 27,1 km/h (4 Bft)
27.09.2015 12:00 14,9 C 60 % 1024,9 hPa 0,0 l/m O 0,92 h 638 W/m 27,0 km/h (4 Bft)
27.09.2015 13:00 15,2 C 55 % 1025,2 hPa 0,0 l/m O-NO 0,17 h 253 W/m 24,1 km/h (4 Bft)
27.09.2015 14:00 14,9 C 56 % 1025,2 hPa 0,0 l/m O-NO 0,25 h 284 W/m 26,7 km/h (4 Bft)
27.09.2015 15:00 15,3 C 52 % 1025,3 hPa 0,0 l/m O-NO 0,50 h 352 W/m 25,6 km/h (4 Bft)
27.09.2015 16:00 15,1 C 54 % 1025,7 hPa 0,0 l/m O 0,50 h 265 W/m 24,1 km/h (4 Bft)
27.09.2015 17:00 14,9 C 54 % 1026,0 hPa 0,0 l/m O-SO 1,00 h 251 W/m 22,5 km/h (4 Bft)
27.09.2015 18:00 14,0 C 55 % 1026,4 hPa 0,0 l/m O-NO 0,42 h 56 W/m 20,4 km/h (4 Bft)
27.09.2015 19:00 12,5 C 61 % 1027,1 hPa 0,0 l/m O-NO 0,00 h 6 W/m 15,0 km/h (3 Bft)
27.09.2015 20:00 11,7 C 64 % 1027,5 hPa 0,0 l/m O-NO 0,00 h 0 W/m 12,0 km/h (2 Bft)
27.09.2015 21:00 11,1 C 66 % 1027,9 hPa 0,0 l/m O-NO 0,00 h 0 W/m 14,0 km/h (3 Bft)
27.09.2015 22:00 10,6 C 67 % 1028,2 hPa 0,0 l/m O-NO 0,00 h 0 W/m 10,5 km/h (2 Bft)
27.09.2015 23:00 9,6 C 70 % 1028,3 hPa 0,0 l/m O-NO 0,00 h 0 W/m 11,4 km/h (2 Bft)
Min-Datum _ 25.09.15 21.09.15 22.09.15 - - - - 21.09.15
_ Min-Zeit 07:10 17:15 21:45 - - - - 00:00
Minimum _ 3,9 C 50 % 1003,1 hPa - - - - 0,0 km/h (0 Bft)
Max-Datum _ 21.09.15 24.09.15 27.09.15 23.09.15 - 21.09.15 24.09.15 27.09.15
_ Max-Zeit 17:10 03:45 23:55 02:00 - 08:35 13:25 10:50
Maximum _ 20,4 C 100 % 1028,5 hPa 0,8 l/m - 0,08 h 896 W/m 37,0 km/h
O (5 Bft)
Durchschnitt _ 11,3 C 84 % 1016,7 hPa #3,2 l/m O-NO #28:35 h 201 W/m 7,7 km/h (2 Bft)